sensor_id;sensor_type;location;lat;lon;timestamp;pressure;altitude;pressure_sealevel;temperature;humidity
75317;BME280;63913;51.492;10.368;2024-01-16T00:01:15;97177.22;;;-0.71;98.91
75317;BME280;63913;51.492;10.368;2024-01-16T00:03:41;97183.38;;;-0.66;98.54
75317;BME280;63913;51.492;10.368;2024-01-16T00:06:07;97183.38;;;-0.66;98.79
75317;BME280;63913;51.492;10.368;2024-01-16T00:08:32;97195.19;;;-0.65;98.61
75317;BME280;63913;51.492;10.368;2024-01-16T00:10:58;97188.41;;;-0.66;98.39
75317;BME280;63913;51.492;10.368;2024-01-16T00:13:23;97188.28;;;-0.69;98.84
75317;BME280;63913;51.492;10.368;2024-01-16T00:15:49;97190.00;;;-0.68;99.12
75317;BME280;63913;51.492;10.368;2024-01-16T00:18:15;97204.41;;;-0.65;99.18
75317;BME280;63913;51.492;10.368;2024-01-16T00:20:40;97196.69;;;-0.68;98.85
75317;BME280;63913;51.492;10.368;2024-01-16T00:23:06;97213.34;;;-0.72;99.14
75317;BME280;63913;51.492;10.368;2024-01-16T00:25:31;97202.47;;;-0.71;98.51
75317;BME280;63913;51.492;10.368;2024-01-16T00:27:56;97209.97;;;-0.72;98.75
75317;BME280;63913;51.492;10.368;2024-01-16T00:30:22;97207.66;;;-0.68;98.20
75317;BME280;63913;51.492;10.368;2024-01-16T00:32:47;97209.47;;;-0.65;98.23
75317;BME280;63913;51.492;10.368;2024-01-16T00:35:12;97210.34;;;-0.65;98.47
75317;BME280;63913;51.492;10.368;2024-01-16T00:37:38;97208.00;;;-0.60;98.24
75317;BME280;63913;51.492;10.368;2024-01-16T00:40:05;97221.41;;;-0.61;98.78
75317;BME280;63913;51.492;10.368;2024-01-16T00:42:31;97224.72;;;-0.62;98.28
75317;BME280;63913;51.492;10.368;2024-01-16T00:44:57;97231.31;;;-0.66;98.54
75317;BME280;63913;51.492;10.368;2024-01-16T00:47:23;97227.84;;;-0.68;98.88
75317;BME280;63913;51.492;10.368;2024-01-16T00:49:48;97221.34;;;-0.63;98.60
75317;BME280;63913;51.492;10.368;2024-01-16T00:52:13;97227.19;;;-0.64;98.95
75317;BME280;63913;51.492;10.368;2024-01-16T00:54:39;97224.63;;;-0.65;99.30
75317;BME280;63913;51.492;10.368;2024-01-16T00:57:05;97227.19;;;-0.64;99.09
75317;BME280;63913;51.492;10.368;2024-01-16T00:59:30;97226.53;;;-0.60;98.84
75317;BME280;63913;51.492;10.368;2024-01-16T01:01:56;97235.41;;;-0.68;98.05
75317;BME280;63913;51.492;10.368;2024-01-16T01:04:21;97235.59;;;-0.63;97.93
75317;BME280;63913;51.492;10.368;2024-01-16T01:06:46;97241.53;;;-0.63;98.50
75317;BME280;63913;51.492;10.368;2024-01-16T01:09:12;97246.56;;;-0.63;98.15
75317;BME280;63913;51.492;10.368;2024-01-16T01:11:38;97244.91;;;-0.62;98.19
75317;BME280;63913;51.492;10.368;2024-01-16T01:14:04;97252.41;;;-0.64;98.36
75317;BME280;63913;51.492;10.368;2024-01-16T01:16:29;97252.41;;;-0.64;97.89
75317;BME280;63913;51.492;10.368;2024-01-16T01:18:54;97258.41;;;-0.62;98.15
75317;BME280;63913;51.492;10.368;2024-01-16T01:21:20;97288.59;;;-0.63;97.88
75317;BME280;63913;51.492;10.368;2024-01-16T01:23:45;97270.91;;;-0.65;96.86
75317;BME280;63913;51.492;10.368;2024-01-16T01:26:10;97270.94;;;-0.63;97.76
75317;BME280;63913;51.492;10.368;2024-01-16T01:28:39;97270.81;;;-0.66;96.90
75317;BME280;63913;51.492;10.368;2024-01-16T01:31:05;97286.09;;;-0.63;97.52
75317;BME280;63913;51.492;10.368;2024-01-16T01:33:33;97291.09;;;-0.65;96.48
75317;BME280;63913;51.492;10.368;2024-01-16T01:35:58;97286.09;;;-0.63;97.10
75317;BME280;63913;51.492;10.368;2024-01-16T01:38:23;97278.50;;;-0.63;96.81
75317;BME280;63913;51.492;10.368;2024-01-16T01:40:49;97278.31;;;-0.68;96.37
75317;BME280;63913;51.492;10.368;2024-01-16T01:43:19;97292.59;;;-0.68;98.95
75317;BME280;63913;51.492;10.368;2024-01-16T01:45:51;97300.81;;;-0.72;100.00
75317;BME280;63913;51.492;10.368;2024-01-16T01:48:22;97304.69;;;-0.79;100.00
75317;BME280;63913;51.492;10.368;2024-01-16T01:50:48;97307.91;;;-0.83;100.00
75317;BME280;63913;51.492;10.368;2024-01-16T01:53:13;97302.69;;;-0.86;100.00
75317;BME280;63913;51.492;10.368;2024-01-16T01:55:38;97301.75;;;-0.88;100.00
75317;BME280;63913;51.492;10.368;2024-01-16T01:58:04;97303.41;;;-0.89;100.00
75317;BME280;63913;51.492;10.368;2024-01-16T02:00:31;97313.13;;;-0.96;100.00
75317;BME280;63913;51.492;10.368;2024-01-16T02:02:56;97309.63;;;-1.00;100.00
75317;BME280;63913;51.492;10.368;2024-01-16T02:05:22;97306.31;;;-0.99;100.00
75317;BME280;63913;51.492;10.368;2024-01-16T02:07:47;97310.56;;;-0.98;100.00
75317;BME280;63913;51.492;10.368;2024-01-16T02:10:12;97313.72;;;-1.02;100.00
75317;BME280;63913;51.492;10.368;2024-01-16T02:12:38;97315.63;;;-0.98;100.00
75317;BME280;63913;51.492;10.368;2024-01-16T02:15:03;97318.94;;;-0.99;100.00
75317;BME280;63913;51.492;10.368;2024-01-16T02:17:29;97334.19;;;-0.96;100.00
75317;BME280;63913;51.492;10.368;2024-01-16T02:19:54;97339.38;;;-0.93;100.00
75317;BME280;63913;51.492;10.368;2024-01-16T02:22:20;97329.28;;;-0.93;100.00
75317;BME280;63913;51.492;10.368;2024-01-16T02:24:49;97336.94;;;-0.91;100.00
75317;BME280;63913;51.492;10.368;2024-01-16T02:27:14;97334.41;;;-0.91;100.00
75317;BME280;63913;51.492;10.368;2024-01-16T02:29:41;97342.94;;;-0.89;100.00
75317;BME280;63913;51.492;10.368;2024-01-16T02:32:08;97342.28;;;-0.85;99.73
75317;BME280;63913;51.492;10.368;2024-01-16T02:34:33;97340.41;;;-0.89;100.00
75317;BME280;63913;51.492;10.368;2024-01-16T02:36:58;97349.56;;;-0.91;99.87
75317;BME280;63913;51.492;10.368;2024-01-16T02:39:24;97342.00;;;-0.91;99.40
75317;BME280;63913;51.492;10.368;2024-01-16T02:41:50;97350.53;;;-0.88;99.29
75317;BME280;63913;51.492;10.368;2024-01-16T02:44:15;97353.81;;;-0.90;99.19
75317;BME280;63913;51.492;10.368;2024-01-16T02:46:40;97359.78;;;-0.88;99.23
75317;BME280;63913;51.492;10.368;2024-01-16T02:49:06;97353.03;;;-0.89;98.94
75317;BME280;63913;51.492;10.368;2024-01-16T02:51:32;97351.84;;;-0.96;98.58
75317;BME280;63913;51.492;10.368;2024-01-16T02:53:57;97359.47;;;-0.94;99.16
75317;BME280;63913;51.492;10.368;2024-01-16T02:56:23;97357.03;;;-0.93;99.00
75317;BME280;63913;51.492;10.368;2024-01-16T02:58:48;97357.13;;;-0.91;98.96
75317;BME280;63913;51.492;10.368;2024-01-16T03:01:14;97357.84;;;-0.94;99.11
75317;BME280;63913;51.492;10.368;2024-01-16T03:03:40;97379.75;;;-0.93;99.62
75317;BME280;63913;51.492;10.368;2024-01-16T03:06:05;97373.75;;;-0.95;100.00
75317;BME280;63913;51.492;10.368;2024-01-16T03:08:31;97369.50;;;-0.96;99.95
75317;BME280;63913;51.492;10.368;2024-01-16T03:10:56;97378.66;;;-0.98;99.34
75317;BME280;63913;51.492;10.368;2024-01-16T03:13:22;97382.84;;;-0.98;99.09
75317;BME280;63913;51.492;10.368;2024-01-16T03:15:47;97381.31;;;-0.95;98.12
75317;BME280;63913;51.492;10.368;2024-01-16T03:18:13;97388.75;;;-0.98;98.07
75317;BME280;63913;51.492;10.368;2024-01-16T03:20:38;97388.75;;;-0.98;97.75
75317;BME280;63913;51.492;10.368;2024-01-16T03:23:03;97390.25;;;-1.01;97.86
75317;BME280;63913;51.492;10.368;2024-01-16T03:25:29;97390.16;;;-1.03;96.99
75317;BME280;63913;51.492;10.368;2024-01-16T03:27:54;97387.72;;;-1.01;96.62
75317;BME280;63913;51.492;10.368;2024-01-16T03:30:20;97393.72;;;-0.99;96.08
75317;BME280;63913;51.492;10.368;2024-01-16T03:32:45;97398.53;;;-1.04;96.01
75317;BME280;63913;51.492;10.368;2024-01-16T03:35:10;97398.59;;;-1.02;95.68
75317;BME280;63913;51.492;10.368;2024-01-16T03:37:37;97399.31;;;-1.05;95.68
75317;BME280;63913;51.492;10.368;2024-01-16T03:40:03;97401.91;;;-1.03;94.84
75317;BME280;63913;51.492;10.368;2024-01-16T03:42:28;97403.53;;;-1.05;94.52
75317;BME280;63913;51.492;10.368;2024-01-16T03:44:54;97403.53;;;-1.05;93.93
75317;BME280;63913;51.492;10.368;2024-01-16T03:47:19;97407.53;;;-1.09;94.52
75317;BME280;63913;51.492;10.368;2024-01-16T03:49:45;97404.06;;;-1.11;94.72
75317;BME280;63913;51.492;10.368;2024-01-16T03:52:10;97399.03;;;-1.11;94.90
75317;BME280;63913;51.492;10.368;2024-01-16T03:54:35;97400.06;;;-1.07;94.64
75317;BME280;63913;51.492;10.368;2024-01-16T03:57:01;97412.75;;;-1.06;94.46
75317;BME280;63913;51.492;10.368;2024-01-16T03:59:26;97409.97;;;-1.10;94.67
75317;BME280;63913;51.492;10.368;2024-01-16T04:01:52;97409.91;;;-1.12;94.13
75317;BME280;63913;51.492;10.368;2024-01-16T04:04:18;97422.50;;;-1.12;94.32
75317;BME280;63913;51.492;10.368;2024-01-16T04:06:43;97414.88;;;-1.13;95.03
75317;BME280;63913;51.492;10.368;2024-01-16T04:09:08;97418.25;;;-1.13;94.67
75317;BME280;63913;51.492;10.368;2024-01-16T04:11:35;97421.81;;;-1.09;94.78
75317;BME280;63913;51.492;10.368;2024-01-16T04:14:00;97421.97;;;-1.06;94.77
75317;BME280;63913;51.492;10.368;2024-01-16T04:16:26;97417.91;;;-1.03;94.49
75317;BME280;63913;51.492;10.368;2024-01-16T04:18:52;97412.41;;;-1.12;94.62
75317;BME280;63913;51.492;10.368;2024-01-16T04:21:17;97420.72;;;-1.14;93.92
75317;BME280;63913;51.492;10.368;2024-01-16T04:23:43;97413.44;;;-1.08;93.78
75317;BME280;63913;51.492;10.368;2024-01-16T04:26:08;97414.88;;;-1.13;93.68
75317;BME280;63913;51.492;10.368;2024-01-16T04:28:34;97429.16;;;-1.14;93.74
75317;BME280;63913;51.492;10.368;2024-01-16T04:31:03;97423.06;;;-1.18;93.93
75317;BME280;63913;51.492;10.368;2024-01-16T04:33:29;97423.25;;;-1.14;94.50
75317;BME280;63913;51.492;10.368;2024-01-16T04:35:55;97418.19;;;-1.14;94.44
75317;BME280;63913;51.492;10.368;2024-01-16T04:38:20;97419.84;;;-1.15;94.99
75317;BME280;63913;51.492;10.368;2024-01-16T04:40:46;97423.06;;;-1.18;95.25
75317;BME280;63913;51.492;10.368;2024-01-16T04:43:11;97417.81;;;-1.22;95.14
75317;BME280;63913;51.492;10.368;2024-01-16T04:45:37;97426.78;;;-1.27;96.32
75317;BME280;63913;51.492;10.368;2024-01-16T04:48:02;97427.56;;;-1.28;96.91
75317;BME280;63913;51.492;10.368;2024-01-16T04:50:28;97427.53;;;-1.30;97.02
75317;BME280;63913;51.492;10.368;2024-01-16T04:52:59;97436.41;;;-1.36;97.72
75317;BME280;63913;51.492;10.368;2024-01-16T04:55:26;97441.59;;;-1.33;98.47
75317;BME280;63913;51.492;10.368;2024-01-16T04:57:52;97441.22;;;-1.41;99.27
75317;BME280;63913;51.492;10.368;2024-01-16T05:00:17;97445.22;;;-1.44;100.00
75317;BME280;63913;51.492;10.368;2024-01-16T05:02:43;97442.50;;;-1.49;100.00
75317;BME280;63913;51.492;10.368;2024-01-16T05:05:08;97450.13;;;-1.47;100.00
75317;BME280;63913;51.492;10.368;2024-01-16T05:07:34;97451.06;;;-1.45;100.00
75317;BME280;63913;51.492;10.368;2024-01-16T05:10:04;97468.66;;;-1.47;100.00
75317;BME280;63913;51.492;10.368;2024-01-16T05:12:29;97456.03;;;-1.47;100.00
75317;BME280;63913;51.492;10.368;2024-01-16T05:14:54;97458.38;;;-1.50;100.00
75317;BME280;63913;51.492;10.368;2024-01-16T05:17:20;97455.09;;;-1.49;100.00
75317;BME280;63913;51.492;10.368;2024-01-16T05:19:46;97456.19;;;-1.44;100.00
75317;BME280;63913;51.492;10.368;2024-01-16T05:22:11;97449.56;;;-1.42;100.00
75317;BME280;63913;51.492;10.368;2024-01-16T05:24:36;97449.19;;;-1.49;100.00
75317;BME280;63913;51.492;10.368;2024-01-16T05:27:02;97453.75;;;-1.42;100.00
75317;BME280;63913;51.492;10.368;2024-01-16T05:29:30;97458.16;;;-1.38;100.00
75317;BME280;63913;51.492;10.368;2024-01-16T05:31:56;97452.31;;;-1.37;100.00
75317;BME280;63913;51.492;10.368;2024-01-16T05:34:21;97451.13;;;-1.44;100.00
75317;BME280;63913;51.492;10.368;2024-01-16T05:36:47;97453.56;;;-1.45;100.00
75317;BME280;63913;51.492;10.368;2024-01-16T05:39:12;97451.06;;;-1.45;100.00
75317;BME280;63913;51.492;10.368;2024-01-16T05:41:37;97457.13;;;-1.42;100.00
75317;BME280;63913;51.492;10.368;2024-01-16T05:44:03;97450.28;;;-1.44;100.00
75317;BME280;63913;51.492;10.368;2024-01-16T05:46:30;97463.03;;;-1.41;100.00
75317;BME280;63913;51.492;10.368;2024-01-16T05:48:56;97466.72;;;-1.51;100.00
75317;BME280;63913;51.492;10.368;2024-01-16T05:51:21;97453.81;;;-1.57;100.00
75317;BME280;63913;51.492;10.368;2024-01-16T05:53:46;97446.75;;;-1.64;100.00
75317;BME280;63913;51.492;10.368;2024-01-16T05:56:12;97446.75;;;-1.64;100.00
75317;BME280;63913;51.492;10.368;2024-01-16T05:58:37;97437.19;;;-1.70;100.00
75317;BME280;63913;51.492;10.368;2024-01-16T06:01:05;97448.47;;;-1.63;100.00
75317;BME280;63913;51.492;10.368;2024-01-16T06:03:30;97448.53;;;-1.62;100.00
75317;BME280;63913;51.492;10.368;2024-01-16T06:05:56;97457.69;;;-1.64;100.00
75317;BME280;63913;51.492;10.368;2024-01-16T06:08:21;97455.88;;;-1.66;100.00
75317;BME280;63913;51.492;10.368;2024-01-16T06:10:46;97456.91;;;-1.63;100.00
75317;BME280;63913;51.492;10.368;2024-01-16T06:13:12;97462.00;;;-1.61;100.00
75317;BME280;63913;51.492;10.368;2024-01-16T06:15:37;97458.16;;;-1.55;100.00
75317;BME280;63913;51.492;10.368;2024-01-16T06:18:02;97465.88;;;-1.51;100.00
75317;BME280;63913;51.492;10.368;2024-01-16T06:20:28;97458.16;;;-1.55;100.00
75317;BME280;63913;51.492;10.368;2024-01-16T06:22:54;97460.34;;;-1.61;100.00
75317;BME280;63913;51.492;10.368;2024-01-16T06:25:19;97465.66;;;-1.56;100.00
75317;BME280;63913;51.492;10.368;2024-01-16T06:27:45;97460.03;;;-1.50;100.00
75317;BME280;63913;51.492;10.368;2024-01-16T06:30:11;97473.44;;;-1.51;100.00
75317;BME280;63913;51.492;10.368;2024-01-16T06:32:36;97465.66;;;-1.56;100.00
75317;BME280;63913;51.492;10.368;2024-01-16T06:35:01;97474.94;;;-1.55;100.00
75317;BME280;63913;51.492;10.368;2024-01-16T06:37:27;97466.44;;;-1.57;100.00
75317;BME280;63913;51.492;10.368;2024-01-16T06:39:52;97468.25;;;-1.55;100.00
75317;BME280;63913;51.492;10.368;2024-01-16T06:42:17;97466.50;;;-1.56;100.00
75317;BME280;63913;51.492;10.368;2024-01-16T06:44:43;97466.44;;;-1.57;100.00
75317;BME280;63913;51.492;10.368;2024-01-16T06:47:08;97463.13;;;-1.56;100.00
75317;BME280;63913;51.492;10.368;2024-01-16T06:49:33;97466.34;;;-1.59;100.00
75317;BME280;63913;51.492;10.368;2024-01-16T06:51:59;97472.34;;;-1.57;100.00
75317;BME280;63913;51.492;10.368;2024-01-16T06:54:25;97464.00;;;-1.56;100.00
75317;BME280;63913;51.492;10.368;2024-01-16T06:56:50;97478.47;;;-1.51;100.00
75317;BME280;63913;51.492;10.368;2024-01-16T06:59:15;97480.28;;;-1.49;100.00
75317;BME280;63913;51.492;10.368;2024-01-16T07:01:44;97482.72;;;-1.50;100.00
75317;BME280;63913;51.492;10.368;2024-01-16T07:04:09;97483.38;;;-1.55;100.00
75317;BME280;63913;51.492;10.368;2024-01-16T07:06:34;97479.03;;;-1.57;100.00
75317;BME280;63913;51.492;10.368;2024-01-16T07:09:00;97488.41;;;-1.55;100.00
75317;BME280;63913;51.492;10.368;2024-01-16T07:11:25;97479.91;;;-1.57;100.00
75317;BME280;63913;51.492;10.368;2024-01-16T07:13:50;97485.06;;;-1.54;100.00
75317;BME280;63913;51.492;10.368;2024-01-16T07:16:16;97479.03;;;-1.57;100.00
75317;BME280;63913;51.492;10.368;2024-01-16T07:18:41;97477.28;;;-1.58;100.00
75317;BME280;63913;51.492;10.368;2024-01-16T07:21:19;97485.16;;;-1.52;100.00
75317;BME280;63913;51.492;10.368;2024-01-16T07:23:46;97483.41;;;-1.53;100.00
75317;BME280;63913;51.492;10.368;2024-01-16T07:26:12;97489.50;;;-1.49;100.00
75317;BME280;63913;51.492;10.368;2024-01-16T07:28:37;97481.25;;;-1.47;100.00
75317;BME280;63913;51.492;10.368;2024-01-16T07:31:03;97488.16;;;-1.43;100.00
75317;BME280;63913;51.492;10.368;2024-01-16T07:33:28;97502.59;;;-1.40;100.00
75317;BME280;63913;51.492;10.368;2024-01-16T07:35:54;97498.31;;;-1.41;100.00
75317;BME280;63913;51.492;10.368;2024-01-16T07:38:20;97507.47;;;-1.43;100.00
75317;BME280;63913;51.492;10.368;2024-01-16T07:40:45;97499.97;;;-1.42;100.00
75317;BME280;63913;51.492;10.368;2024-01-16T07:43:10;97507.47;;;-1.43;100.00
75317;BME280;63913;51.492;10.368;2024-01-16T07:45:37;97497.47;;;-1.42;100.00
75317;BME280;63913;51.492;10.368;2024-01-16T07:48:03;97501.81;;;-1.39;100.00
75317;BME280;63913;51.492;10.368;2024-01-16T07:50:28;97496.75;;;-1.39;100.00
75317;BME280;63913;51.492;10.368;2024-01-16T07:52:54;97501.81;;;-1.39;100.00
75317;BME280;63913;51.492;10.368;2024-01-16T07:55:19;97502.66;;;-1.39;100.00
75317;BME280;63913;51.492;10.368;2024-01-16T07:57:44;97509.59;;;-1.35;100.00
75317;BME280;63913;51.492;10.368;2024-01-16T08:00:10;97501.03;;;-1.38;100.00
75317;BME280;63913;51.492;10.368;2024-01-16T08:02:37;97509.50;;;-1.36;100.00
75317;BME280;63913;51.492;10.368;2024-01-16T08:05:04;97512.03;;;-1.36;100.00
75317;BME280;63913;51.492;10.368;2024-01-16T08:07:30;97510.38;;;-1.36;100.00
75317;BME280;63913;51.492;10.368;2024-01-16T08:09:55;97511.31;;;-1.34;100.00
75317;BME280;63913;51.492;10.368;2024-01-16T08:12:21;97516.69;;;-1.28;100.00
75317;BME280;63913;51.492;10.368;2024-01-16T08:14:46;97514.25;;;-1.26;100.00
75317;BME280;63913;51.492;10.368;2024-01-16T08:17:12;97514.25;;;-1.26;100.00
75317;BME280;63913;51.492;10.368;2024-01-16T08:19:37;97517.84;;;-1.21;100.00
75317;BME280;63913;51.492;10.368;2024-01-16T08:22:03;97515.50;;;-1.18;100.00
75317;BME280;63913;51.492;10.368;2024-01-16T08:24:29;97517.31;;;-1.16;100.00
75317;BME280;63913;51.492;10.368;2024-01-16T08:26:55;97512.38;;;-1.14;100.00
75317;BME280;63913;51.492;10.368;2024-01-16T08:29:22;97534.50;;;-1.08;100.00
75317;BME280;63913;51.492;10.368;2024-01-16T08:31:48;97523.47;;;-1.10;100.00
75317;BME280;63913;51.492;10.368;2024-01-16T08:34:13;97521.97;;;-1.07;100.00
75317;BME280;63913;51.492;10.368;2024-01-16T08:36:38;97527.16;;;-1.04;100.00
75317;BME280;63913;51.492;10.368;2024-01-16T08:39:05;97533.16;;;-1.02;100.00
75317;BME280;63913;51.492;10.368;2024-01-16T08:41:31;97532.19;;;-1.04;100.00
75317;BME280;63913;51.492;10.368;2024-01-16T08:43:56;97534.31;;;-1.11;100.00
75317;BME280;63913;51.492;10.368;2024-01-16T08:46:22;97529.16;;;-1.14;100.00
75317;BME280;63913;51.492;10.368;2024-01-16T08:48:48;97530.78;;;-1.15;100.00
75317;BME280;63913;51.492;10.368;2024-01-16T08:51:13;97539.28;;;-1.13;100.00
75317;BME280;63913;51.492;10.368;2024-01-16T08:53:39;97538.44;;;-1.13;100.00
75317;BME280;63913;51.492;10.368;2024-01-16T08:56:05;97534.31;;;-1.11;100.00
75317;BME280;63913;51.492;10.368;2024-01-16T08:58:32;97536.06;;;-1.10;100.00
75317;BME280;63913;51.492;10.368;2024-01-16T09:01:02;97534.31;;;-1.11;100.00
75317;BME280;63913;51.492;10.368;2024-01-16T09:03:27;97537.50;;;-1.16;100.00
75317;BME280;63913;51.492;10.368;2024-01-16T09:05:53;97540.09;;;-1.14;100.00
75317;BME280;63913;51.492;10.368;2024-01-16T09:08:18;97540.88;;;-1.15;100.00
75317;BME280;63913;51.492;10.368;2024-01-16T09:10:43;97541.66;;;-1.16;100.00
75317;BME280;63913;51.492;10.368;2024-01-16T09:13:09;97545.19;;;-1.12;100.00
75317;BME280;63913;51.492;10.368;2024-01-16T09:15:34;97536.44;;;-1.19;100.00
75317;BME280;63913;51.492;10.368;2024-01-16T09:17:59;97549.47;;;-1.11;100.00
75317;BME280;63913;51.492;10.368;2024-01-16T09:20:25;97548.59;;;-1.12;100.00
75317;BME280;63913;51.492;10.368;2024-01-16T09:22:50;97546.00;;;-1.13;100.00
75317;BME280;63913;51.492;10.368;2024-01-16T09:25:15;97553.97;;;-1.06;100.00
75317;BME280;63913;51.492;10.368;2024-01-16T09:27:42;97554.97;;;-1.02;100.00
75317;BME280;63913;51.492;10.368;2024-01-16T09:30:07;97547.50;;;-1.01;100.00
75317;BME280;63913;51.492;10.368;2024-01-16T09:32:33;97561.19;;;-0.96;100.00
75317;BME280;63913;51.492;10.368;2024-01-16T09:35:01;97560.81;;;-0.87;100.00
75317;BME280;63913;51.492;10.368;2024-01-16T09:37:28;97555.91;;;-0.84;100.00
75317;BME280;63913;51.492;10.368;2024-01-16T09:39:54;97549.94;;;-0.86;100.00
75317;BME280;63913;51.492;10.368;2024-01-16T09:42:19;97544.00;;;-0.87;99.81
75317;BME280;63913;51.492;10.368;2024-01-16T09:44:46;97550.09;;;-0.83;99.05
75317;BME280;63913;51.492;10.368;2024-01-16T09:47:13;97554.19;;;-0.85;99.75
75317;BME280;63913;51.492;10.368;2024-01-16T09:49:40;97554.28;;;-0.84;99.27
75317;BME280;63913;51.492;10.368;2024-01-16T09:52:07;97552.53;;;-0.85;98.60
75317;BME280;63913;51.492;10.368;2024-01-16T09:54:32;97557.25;;;-0.74;99.34
75317;BME280;63913;51.492;10.368;2024-01-16T09:56:58;97554.66;;;-0.76;98.15
75317;BME280;63913;51.492;10.368;2024-01-16T09:59:24;97554.56;;;-0.78;97.85
75317;BME280;63913;51.492;10.368;2024-01-16T10:01:51;97564.66;;;-0.78;98.95
75317;BME280;63913;51.492;10.368;2024-01-16T10:04:17;97563.72;;;-0.80;99.84
75317;BME280;63913;51.492;10.368;2024-01-16T10:06:45;97570.88;;;-0.71;100.00
75317;BME280;63913;51.492;10.368;2024-01-16T10:09:12;97573.19;;;-0.75;100.00
75317;BME280;63913;51.492;10.368;2024-01-16T10:11:37;97574.53;;;-0.66;100.00
75317;BME280;63913;51.492;10.368;2024-01-16T10:14:03;97567.09;;;-0.63;100.00
75317;BME280;63913;51.492;10.368;2024-01-16T10:16:57;97560.28;;;-0.64;100.00
75317;BME280;63913;51.492;10.368;2024-01-16T10:19:29;97568.59;;;-0.66;100.00
75317;BME280;63913;51.492;10.368;2024-01-16T10:22:04;97564.47;;;-0.64;100.00
75317;BME280;63913;51.492;10.368;2024-01-16T10:24:31;97562.91;;;-0.62;100.00
75317;BME280;63913;51.492;10.368;2024-01-16T10:26:59;97572.22;;;-0.61;100.00
75317;BME280;63913;51.492;10.368;2024-01-16T10:29:26;97568.13;;;-0.59;100.00
75317;BME280;63913;51.492;10.368;2024-01-16T10:31:51;97560.53;;;-0.59;100.00
75317;BME280;63913;51.492;10.368;2024-01-16T10:34:22;97567.78;;;-0.49;100.00
75317;BME280;63913;51.492;10.368;2024-01-16T10:36:50;97565.88;;;-0.53;99.63
75317;BME280;63913;51.492;10.368;2024-01-16T10:39:16;97561.72;;;-0.53;99.68
75317;BME280;63913;51.492;10.368;2024-01-16T10:41:42;97557.38;;;-0.55;98.99
75317;BME280;63913;51.492;10.368;2024-01-16T10:44:18;97557.38;;;-0.55;98.89
75317;BME280;63913;51.492;10.368;2024-01-16T10:46:43;97559.34;;;-0.50;99.56
75317;BME280;63913;51.492;10.368;2024-01-16T10:49:09;97561.00;;;-0.50;100.00
75317;BME280;63913;51.492;10.368;2024-01-16T10:51:34;97555.16;;;-0.49;99.58
75317;BME280;63913;51.492;10.368;2024-01-16T10:54:04;97562.94;;;-0.45;99.36
75317;BME280;63913;51.492;10.368;2024-01-16T10:56:34;97555.59;;;-0.40;98.32
75317;BME280;63913;51.492;10.368;2024-01-16T10:59:12;97556.41;;;-0.41;97.66
75317;BME280;63913;51.492;10.368;2024-01-16T11:01:43;97562.09;;;-0.45;97.40
75317;BME280;63913;51.492;10.368;2024-01-16T11:04:11;97554.50;;;-0.45;97.63
75317;BME280;63913;51.492;10.368;2024-01-16T11:06:37;97554.44;;;-0.47;96.12
75317;BME280;63913;51.492;10.368;2024-01-16T11:09:04;97556.53;;;-0.38;95.88
75317;BME280;63913;51.492;10.368;2024-01-16T11:11:30;97556.03;;;-0.31;95.74
75317;BME280;63913;51.492;10.368;2024-01-16T11:13:56;97547.97;;;-0.24;95.67
75317;BME280;63913;51.492;10.368;2024-01-16T11:16:22;97547.34;;;-0.20;94.97
75317;BME280;63913;51.492;10.368;2024-01-16T11:18:48;97548.38;;;-0.16;94.85
75317;BME280;63913;51.492;10.368;2024-01-16T11:21:14;97558.31;;;-0.19;93.79
75317;BME280;63913;51.492;10.368;2024-01-16T11:23:41;97551.53;;;-0.20;94.06
75317;BME280;63913;51.492;10.368;2024-01-16T11:26:34;97553.75;;;-0.26;93.81
75317;BME280;63913;51.492;10.368;2024-01-16T11:31:51;97543.06;;;-0.21;95.08
75317;BME280;63913;51.492;10.368;2024-01-16T11:37:08;97542.78;;;-0.27;94.19
75317;BME280;63913;51.492;10.368;2024-01-16T11:39:35;97532.81;;;-0.24;94.72
75317;BME280;63913;51.492;10.368;2024-01-16T11:42:01;97536.09;;;-0.26;94.28
75317;BME280;63913;51.492;10.368;2024-01-16T11:44:43;97537.03;;;-0.24;94.75
75317;BME280;63913;51.492;10.368;2024-01-16T11:47:16;97532.03;;;-0.23;94.50
75317;BME280;63913;51.492;10.368;2024-01-16T11:49:42;97535.84;;;-0.31;94.04
75317;BME280;63913;51.492;10.368;2024-01-16T11:52:08;97537.50;;;-0.31;93.58
75317;BME280;63913;51.492;10.368;2024-01-16T11:54:33;97533.47;;;-0.28;93.56
75317;BME280;63913;51.492;10.368;2024-01-16T11:59:58;97524.31;;;-0.44;93.15
75317;BME280;63913;51.492;10.368;2024-01-16T12:02:29;97529.44;;;-0.42;93.13
75317;BME280;63913;51.492;10.368;2024-01-16T12:04:57;97526.75;;;-0.45;93.55
75317;BME280;63913;51.492;10.368;2024-01-16T12:07:28;97531.94;;;-0.42;92.36
75317;BME280;63913;51.492;10.368;2024-01-16T12:09:58;97524.75;;;-0.34;93.22
75317;BME280;63913;51.492;10.368;2024-01-16T12:12:24;97517.38;;;-0.30;92.64
75317;BME280;63913;51.492;10.368;2024-01-16T12:14:52;97520.78;;;-0.29;92.37
75317;BME280;63913;51.492;10.368;2024-01-16T12:17:18;97518.47;;;-0.25;91.81
75317;BME280;63913;51.492;10.368;2024-01-16T12:19:45;97522.50;;;-0.28;91.17
75317;BME280;63913;51.492;10.368;2024-01-16T12:22:16;97516.81;;;-0.24;89.83
75317;BME280;63913;51.492;10.368;2024-01-16T12:24:43;97526.09;;;-0.23;90.54
75317;BME280;63913;51.492;10.368;2024-01-16T12:27:10;97521.94;;;-0.23;89.55
75317;BME280;63913;51.492;10.368;2024-01-16T12:29:36;97526.25;;;-0.20;88.68
75317;BME280;63913;51.492;10.368;2024-01-16T12:32:05;97533.25;;;-0.15;88.70
75317;BME280;63913;51.492;10.368;2024-01-16T12:34:31;97527.41;;;-0.14;88.14
75317;BME280;63913;51.492;10.368;2024-01-16T12:37:05;97534.28;;;-0.11;88.23
75317;BME280;63913;51.492;10.368;2024-01-16T12:39:32;97526.03;;;-0.07;89.09
75317;BME280;63913;51.492;10.368;2024-01-16T12:41:57;97523.41;;;-0.10;88.02
75317;BME280;63913;51.492;10.368;2024-01-16T12:44:28;97514.16;;;-0.10;88.65
75317;BME280;63913;51.492;10.368;2024-01-16T12:46:54;97522.38;;;-0.14;88.70
75317;BME280;63913;51.492;10.368;2024-01-16T12:49:23;97505.56;;;-0.13;88.78